Pearl Of Scandinavia — OWFU2 — position and weather

sailwx.info

Track history (hours):
 
Tides and Currents Weather Stations Pressure Air Temp Water Temp Dewpoint Dewpoint Depression Visibility Wind Speed Wind Dir Waves Ship Positions

Pearl Of Scandinavia

Last reported at 2014-Oct-26 02:33 UTC. Time now 2014-Oct-26 02:58 UTC.
Position N 58°28' E 010°53'.

Length 176.4 m; beam 34 m; draft 6.215 m.

Type: Ship. MMSI: 219945000.

Date/timePositionNaut miles runAvg speedWind from/ knotsBaromVisibWave heightAir tempDewpointWater temp
2014-Oct-26 02:33N 58°28' E 010°53'1615.6
2014-Oct-26 01:33N 58°13' E 011°02'1615.5
2014-Oct-26 00:33N 57°58' E 011°12'1515.5
2014-Oct-25 23:34N 57°43' E 011°20'1515.1
2014-Oct-25 22:34N 57°29' E 011°29'1515.0
2014-Oct-25 21:34N 57°15' E 011°37'1515.1
2014-Oct-25 20:34N 57°00' E 011°46'1515.0
2014-Oct-25 19:33N 56°46' E 011°55'1514.7
2014-Oct-25 18:33N 56°32' E 012°01'1414.5
2014-Oct-25 17:33N 56°20' E 012°16'1514.6
2014-Oct-25 16:33N 56°08' E 012°31'1514.6
2014-Oct-25 15:34N 55°56' E 012°44'1413.7
2014-Oct-25 14:33N 55°42' E 012°36'0 0.4
2014-Oct-25 13:32N 55°42' E 012°36'0 0.0
2014-Oct-25 12:32N 55°42' E 012°36'0 0.0
2014-Oct-25 11:32N 55°42' E 012°36'0 0.0
2014-Oct-25 10:32N 55°42' E 012°36'0 0.0
2014-Oct-25 09:32N 55°42' E 012°36'0 0.0
2014-Oct-25 08:32N 55°42' E 012°36'3 2.7
2014-Oct-25 07:33N 55°44' E 012°40'1515.4
2014-Oct-25 06:33N 55°59' E 012°40'1717.0
2014-Oct-25 05:33N 56°14' E 012°25'2118.1
2014-Oct-25 04:24N 56°34' E 012°13'1517.8
2014-Oct-25 03:33N 56°48' E 012°07'1817.7
2014-Oct-25 02:33N 57°05' E 011°58'2017.1
2014-Oct-25 01:24N 57°23' E 011°41'1416.6
2014-Oct-25 00:33N 57°34' E 011°26'1717.0
2014-Oct-24 23:33N 57°48' E 011°07'1616.2
2014-Oct-24 22:33N 58°03' E 010°56'1616.5
2014-Oct-24 21:33N 58°19' E 010°45'1615.5
2014-Oct-24 20:33N 58°33' E 010°35'1715.1
2014-Oct-24 19:25N 58°51' E 010°35'1213.9
2014-Oct-24 18:33N 59°02' E 010°37'1313.4
2014-Oct-24 17:33N 59°16' E 010°36'1413.5
2014-Oct-24 16:33N 59°29' E 010°34'2512.6
2014-Oct-24 14:34N 59°54' E 010°44'0 0.2
2014-Oct-24 13:30N 59°54' E 010°45'0 0.0
2014-Oct-24 12:30N 59°54' E 010°45'0 0.0
2014-Oct-24 11:30N 59°54' E 010°45'0 0.0
2014-Oct-24 10:30N 59°54' E 010°45'0 0.0
2014-Oct-24 09:33N 59°54' E 010°45'0 0.0
2014-Oct-24 08:33N 59°54' E 010°45'0 0.1
2014-Oct-24 07:34N 59°54' E 010°45'3213.5
2014-Oct-24 05:10N 59°22' E 010°35'1016.7
2014-Oct-24 04:33N 59°12' E 010°39'1716.4
2014-Oct-24 03:33N 58°56' E 010°42'1816.9
2014-Oct-24 02:31N 58°38' E 010°48'1616.9
2014-Oct-24 01:34N 58°23' E 010°57'1716.8
2014-Oct-24 00:33N 58°07' E 011°07'1716.6
2014-Oct-23 23:34N 57°51' E 011°17'1716.6
2014-Oct-23 22:33N 57°35' E 011°25'1616.0
2014-Oct-23 21:34N 57°20' E 011°34'1515.4
2014-Oct-23 20:34N 57°05' E 011°43'1515.1
2014-Oct-23 19:33N 56°51' E 011°51'1515.2
2014-Oct-23 18:33N 56°36' E 011°59'1515.0
2014-Oct-23 17:34N 56°23' E 012°11'1616.0
2014-Oct-23 16:34N 56°10' E 012°29'1716.8
2014-Oct-23 15:33N 55°56' E 012°44'1414.0
2014-Oct-23 14:34N 55°42' E 012°36'0 0.2
2014-Oct-23 13:31N 55°42' E 012°36'0 0.0
2014-Oct-23 12:31N 55°42' E 012°36'0 0.0
2014-Oct-23 11:31N 55°42' E 012°36'0 0.0
2014-Oct-23 10:31N 55°42' E 012°36'0 0.0
2014-Oct-23 09:31N 55°42' E 012°36'0 0.0
2014-Oct-23 08:31N 55°42' E 012°36'0 0.0
2014-Oct-23 07:31N 55°42' E 012°36'9 9.1
2014-Oct-23 06:34N 55°50' E 012°42'1414.1
2014-Oct-23 05:34N 56°04' E 012°37'1515.1
2014-Oct-23 04:34N 56°17' E 012°24'1615.7
2014-Oct-23 03:32N 56°33' E 012°15'1616.2
2014-Oct-23 02:33N 56°48' E 012°07'1716.8
2014-Oct-23 01:33N 57°04' E 011°58'1716.7
2014-Oct-23 00:33N 57°19' E 011°45'1716.8
2014-Oct-22 23:34N 57°34' E 011°31'1717.0
2014-Oct-22 22:33N 57°49' E 011°17'1616.3
2014-Oct-22 21:34N 58°05' E 011°08'1616.2
2014-Oct-22 20:34N 58°20' E 010°60'1615.6
2014-Oct-22 19:34N 58°35' E 010°51'1616.3
2014-Oct-22 18:33N 58°51' E 010°44'1817.6
2014-Oct-22 17:33N 59°09' E 010°39'1817.5
2014-Oct-22 16:33N 59°26' E 010°33'2015.8
2014-Oct-22 15:18N 59°46' E 010°33'1013.6
2014-Oct-22 14:33N 59°54' E 010°45'0 0.1
2014-Oct-22 13:31N 59°54' E 010°45'0 0.0
2014-Oct-22 12:31N 59°54' E 010°45'0 0.0
2014-Oct-22 11:22N 59°54' E 010°45'0 0.0
2014-Oct-22 10:25N 59°54' E 010°45'0 0.0
2014-Oct-22 09:25N 59°54' E 010°45'0 0.0
2014-Oct-22 08:25N 59°54' E 010°45'0 0.1
2014-Oct-22 07:33N 59°54' E 010°45'2813.5
2014-Oct-22 05:28N 59°26' E 010°34'1516.7
2014-Oct-22 04:33N 59°12' E 010°39'1616.4
2014-Oct-22 03:33N 58°55' E 010°36'1715.8
2014-Oct-22 02:28N 58°38' E 010°33'1516.5
2014-Oct-22 01:33N 58°24' E 010°43'1716.5
2014-Oct-22 00:33N 58°09' E 010°54'1616.1
2014-Oct-21 23:33N 57°53' E 011°02'1616.3
2014-Oct-21 22:33N 57°39' E 011°17'1616.1
2014-Oct-21 21:33N 57°24' E 011°31'1616.3
2014-Oct-21 20:33N 57°09' E 011°40'1616.4
2014-Oct-21 19:33N 56°53' E 011°50'1716.6
2014-Oct-21 18:33N 56°39' E 012°06'1716.6
2014-Oct-21 17:33N 56°24' E 012°19'1616.3
2014-Oct-21 16:33N 56°09' E 012°31'1615.9
2014-Oct-21 15:33N 55°55' E 012°44'1413.7
2014-Oct-21 14:33N 55°42' E 012°36'0 0.0
2014-Oct-21 13:33N 55°42' E 012°36'0 0.0
2014-Oct-21 12:33N 55°42' E 012°36'0 0.0
2014-Oct-21 11:33N 55°42' E 012°36'0 0.0
2014-Oct-21 10:33N 55°42' E 012°36'0 0.0
2014-Oct-21 09:33N 55°42' E 012°36'0 0.0
2014-Oct-21 08:33N 55°42' E 012°36'0 0.4
2014-Oct-21 07:33N 55°42' E 012°36'1212.1
2014-Oct-21 06:33N 55°54' E 012°39'1414.1
2014-Oct-21 05:33N 56°08' E 012°30'1616.0
2014-Oct-21 04:33N 56°23' E 012°21'1616.1
2014-Oct-21 03:33N 56°39' E 012°15'1616.0
2014-Oct-21 02:31N 56°55' E 012°07'1616.2
2014-Oct-21 01:33N 57°09' E 011°56'1716.6
2014-Oct-21 00:33N 57°24' E 011°42'1717.4
2014-Oct-20 23:33N 57°39' E 011°26'1818.0
2014-Oct-20 22:33N 57°56' E 011°13'1616.1
2014-Oct-20 21:33N 58°11' E 011°05'1616.3
2014-Oct-20 20:33N 58°27' E 010°56'1615.6
2014-Oct-20 19:33N 58°42' E 010°48'1515.5
2014-Oct-20 18:33N 58°57' E 010°43'1616.0
2014-Oct-20 17:33N 59°13' E 010°37'1616.5
2014-Oct-20 16:33N 59°29' E 010°34'1614.8
2014-Oct-20 15:29N 59°45' E 010°33'1111.8
2014-Oct-20 14:33N 59°54' E 010°45'0 0.0
2014-Oct-20 13:33N 59°54' E 010°45'0 0.0
2014-Oct-20 12:33N 59°54' E 010°45'0 0.0
2014-Oct-20 11:33N 59°54' E 010°45'0 0.0
2014-Oct-20 10:33N 59°54' E 010°45'0 0.0
2014-Oct-20 09:24N 59°54' E 010°45'0 0.0
2014-Oct-20 08:27N 59°54' E 010°45'0 0.1
2014-Oct-20 07:33N 59°54' E 010°45'1412.6
2014-Oct-20 06:28N 59°41' E 010°36'1313.7
2014-Oct-20 05:33N 59°29' E 010°34'1615.7
2014-Oct-20 04:33N 59°13' E 010°38'1615.9
2014-Oct-20 03:33N 58°57' E 010°43'1615.7
2014-Oct-20 02:32N 58°41' E 010°46'1515.5
2014-Oct-20 01:33N 58°27' E 010°54'1615.8
2014-Oct-20 00:33N 58°12' E 011°02'1615.9
2014-Oct-19 23:33N 57°57' E 011°13'1716.8
2014-Oct-19 22:33N 57°41' E 011°22'1616.2
2014-Oct-19 21:33N 57°25' E 011°31'1716.6
2014-Oct-19 20:33N 57°10' E 011°40'1716.8
2014-Oct-19 19:33N 56°54' E 011°50'1716.8
2014-Oct-19 18:33N 56°39' E 012°07'1616.2
2014-Oct-19 17:33N 56°25' E 012°19'1716.7
2014-Oct-19 16:33N 56°10' E 012°31'1615.5
2014-Oct-19 15:33N 55°56' E 012°44'1414.0
2014-Oct-19 14:33N 55°42' E 012°36'0 0.5
2014-Oct-19 13:32N 55°42' E 012°36'0 0.0
2014-Oct-19 12:32N 55°42' E 012°36'0 0.0
2014-Oct-19 11:32N 55°42' E 012°36'0 0.0
2014-Oct-19 10:29N 55°42' E 012°36'0 0.0
2014-Oct-19 09:32N 55°42' E 012°36'0 0.0
2014-Oct-19 08:32N 55°42' E 012°36'0 0.1
2014-Oct-19 07:33N 55°42' E 012°36'1010.5
2014-Oct-19 06:34N 55°52' E 012°40'1413.8
2014-Oct-19 05:34N 56°06' E 012°34'1615.6
2014-Oct-19 04:34N 56°20' E 012°22'1717.0
2014-Oct-19 03:32N 56°37' E 012°16'1817.9
2014-Oct-19 02:31N 56°55' E 012°07'1718.1
2014-Oct-19 01:34N 57°11' E 011°55'1817.6
2014-Oct-19 00:34N 57°26' E 011°39'1716.8
2014-Oct-18 23:33N 57°40' E 011°23'1616.1
2014-Oct-18 22:34N 57°56' E 011°13'1515.4
2014-Oct-18 21:33N 58°10' E 011°05'1515.2
2014-Oct-18 20:34N 58°25' E 010°57'1515.2
2014-Oct-18 19:34N 58°40' E 010°49'1515.3
2014-Oct-18 18:33N 58°55' E 010°44'1615.7
2014-Oct-18 17:33N 59°10' E 010°38'1615.8
2014-Oct-18 16:33N 59°26' E 010°33'2914.5
2014-Oct-18 14:33N 59°54' E 010°44'0 0.5
2014-Oct-18 13:31N 59°54' E 010°45'0 0.0
2014-Oct-18 12:31N 59°54' E 010°45'0 0.0
2014-Oct-18 11:22N 59°54' E 010°45'0 0.0
2014-Oct-18 10:22N 59°54' E 010°45'0 0.0
2014-Oct-18 09:22N 59°54' E 010°45'0 0.0
2014-Oct-18 08:25N 59°54' E 010°45'0 0.2
2014-Oct-18 07:33N 59°54' E 010°45'2713.1
2014-Oct-18 05:28N 59°27' E 010°34'1415.7
2014-Oct-18 04:34N 59°13' E 010°38'1616.4
2014-Oct-18 03:34N 58°57' E 010°42'1615.8
2014-Oct-18 02:33N 58°41' E 010°46'1615.7
2014-Oct-18 01:34N 58°26' E 010°55'1615.7
2014-Oct-18 00:33N 58°11' E 011°04'1615.7
2014-Oct-17 23:34N 57°56' E 011°12'1615.5
2014-Oct-17 22:34N 57°41' E 011°20'1615.7
2014-Oct-17 21:34N 57°26' E 011°31'1716.5
2014-Oct-17 20:34N 57°11' E 011°40'1716.7
2014-Oct-17 19:31N 56°54' E 011°49'1616.2
2014-Oct-17 18:33N 56°41' E 012°04'1615.8
2014-Oct-17 17:33N 56°27' E 012°17'1716.9
2014-Oct-17 16:34N 56°11' E 012°29'1716.9
2014-Oct-17 15:34N 55°56' E 012°43'1414.3
2014-Oct-17 14:33N 55°42' E 012°36'0 0.4
2014-Oct-17 13:33N 55°42' E 012°36'0 0.0
2014-Oct-17 12:33N 55°42' E 012°36'0 0.0
2014-Oct-17 11:33N 55°42' E 012°36'0 0.0
2014-Oct-17 10:33N 55°42' E 012°36'0 0.0
2014-Oct-17 09:33N 55°42' E 012°36'0 0.0
2014-Oct-17 08:33N 55°42' E 012°36'0 0.1
2014-Oct-17 07:33N 55°42' E 012°36'1111.0
2014-Oct-17 06:33N 55°52' E 012°44'1413.6
2014-Oct-17 05:33N 56°05' E 012°35'1514.6
2014-Oct-17 04:33N 56°18' E 012°23'1616.1
2014-Oct-17 03:33N 56°34' E 012°18'1615.6
2014-Oct-17 02:33N 56°49' E 012°11'1615.8
2014-Oct-17 01:33N 57°04' E 012°00'2116.4
2014-Oct-17 00:17N 57°22' E 011°41'1216.5
2014-Oct-16 23:34N 57°32' E 011°31'1717.0
2014-Oct-16 22:33N 57°48' E 011°18'1616.4
2014-Oct-16 21:33N 58°04' E 011°09'1615.9
2014-Oct-16 20:33N 58°19' E 011°01'1616.4
2014-Oct-16 19:33N 58°35' E 010°52'1717.2
2014-Oct-16 18:33N 58°52' E 010°44'1817.7
2014-Oct-16 17:33N 59°09' E 010°39'1818.1
2014-Oct-16 16:33N 59°27' E 010°33'2813.9
2014-Oct-16 14:33N 59°54' E 010°45'0 0.0
2014-Oct-16 13:18N 59°54' E 010°45'0 0.0
2014-Oct-16 12:33N 59°54' E 010°45'0 0.0
2014-Oct-16 11:33N 59°54' E 010°45'0 0.0
2014-Oct-16 10:33N 59°54' E 010°45'0 0.0
2014-Oct-16 09:33N 59°54' E 010°45'0 0.0
2014-Oct-16 08:33N 59°54' E 010°45'0 0.2
2014-Oct-16 07:33N 59°54' E 010°45'2813.0
2014-Oct-16 05:24N 59°26' E 010°34'1315.8
2014-Oct-16 04:33N 59°13' E 010°38'1515.2
2014-Oct-16 03:33N 58°58' E 010°42'1515.3
2014-Oct-16 02:34N 58°43' E 010°45'  
Track history (hours):
 
Tides and Currents Weather Stations Pressure Air Temp Water Temp Dewpoint Dewpoint Depression Visibility Wind Speed Wind Dir Waves Ship Positions

Pearl Of Scandinavia

Last reported at 2014-Oct-26 02:33 UTC. Time now 2014-Oct-26 02:58 UTC.
Position N 58°28' E 010°53'.

Length 176.4 m; beam 34 m; draft 6.215 m.

Type: Ship. MMSI: 219945000.

Date/timePositionNaut miles runAvg speedWind from/ knotsBaromVisibWave heightAir tempDewpointWater temp
2014-Oct-26 02:33N 58°28' E 010°53'1615.6
2014-Oct-26 01:33N 58°13' E 011°02'1615.5
2014-Oct-26 00:33N 57°58' E 011°12'1515.5
2014-Oct-25 23:34N 57°43' E 011°20'1515.1
2014-Oct-25 22:34N 57°29' E 011°29'1515.0
2014-Oct-25 21:34N 57°15' E 011°37'1515.1
2014-Oct-25 20:34N 57°00' E 011°46'1515.0
2014-Oct-25 19:33N 56°46' E 011°55'1514.7
2014-Oct-25 18:33N 56°32' E 012°01'1414.5
2014-Oct-25 17:33N 56°20' E 012°16'1514.6
2014-Oct-25 16:33N 56°08' E 012°31'1514.6
2014-Oct-25 15:34N 55°56' E 012°44'1413.7
2014-Oct-25 14:33N 55°42' E 012°36'0 0.4
2014-Oct-25 13:32N 55°42' E 012°36'0 0.0
2014-Oct-25 12:32N 55°42' E 012°36'0 0.0
2014-Oct-25 11:32N 55°42' E 012°36'0 0.0
2014-Oct-25 10:32N 55°42' E 012°36'0 0.0
2014-Oct-25 09:32N 55°42' E 012°36'0 0.0
2014-Oct-25 08:32N 55°42' E 012°36'3 2.7
2014-Oct-25 07:33N 55°44' E 012°40'1515.4
2014-Oct-25 06:33N 55°59' E 012°40'1717.0
2014-Oct-25 05:33N 56°14' E 012°25'2118.1
2014-Oct-25 04:24N 56°34' E 012°13'1517.8
2014-Oct-25 03:33N 56°48' E 012°07'1817.7
2014-Oct-25 02:33N 57°05' E 011°58'2017.1
2014-Oct-25 01:24N 57°23' E 011°41'1416.6
2014-Oct-25 00:33N 57°34' E 011°26'1717.0
2014-Oct-24 23:33N 57°48' E 011°07'1616.2
2014-Oct-24 22:33N 58°03' E 010°56'1616.5
2014-Oct-24 21:33N 58°19' E 010°45'1615.5
2014-Oct-24 20:33N 58°33' E 010°35'1715.1
2014-Oct-24 19:25N 58°51' E 010°35'1213.9
2014-Oct-24 18:33N 59°02' E 010°37'1313.4
2014-Oct-24 17:33N 59°16' E 010°36'1413.5
2014-Oct-24 16:33N 59°29' E 010°34'2512.6
2014-Oct-24 14:34N 59°54' E 010°44'0 0.2
2014-Oct-24 13:30N 59°54' E 010°45'0 0.0
2014-Oct-24 12:30N 59°54' E 010°45'0 0.0
2014-Oct-24 11:30N 59°54' E 010°45'0 0.0
2014-Oct-24 10:30N 59°54' E 010°45'0 0.0
2014-Oct-24 09:33N 59°54' E 010°45'0 0.0
2014-Oct-24 08:33N 59°54' E 010°45'0 0.1
2014-Oct-24 07:34N 59°54' E 010°45'3213.5
2014-Oct-24 05:10N 59°22' E 010°35'1016.7
2014-Oct-24 04:33N 59°12' E 010°39'1716.4
2014-Oct-24 03:33N 58°56' E 010°42'1816.9
2014-Oct-24 02:31N 58°38' E 010°48'1616.9
2014-Oct-24 01:34N 58°23' E 010°57'1716.8
2014-Oct-24 00:33N 58°07' E 011°07'1716.6
2014-Oct-23 23:34N 57°51' E 011°17'1716.6
2014-Oct-23 22:33N 57°35' E 011°25'1616.0
2014-Oct-23 21:34N 57°20' E 011°34'1515.4
2014-Oct-23 20:34N 57°05' E 011°43'1515.1
2014-Oct-23 19:33N 56°51' E 011°51'1515.2
2014-Oct-23 18:33N 56°36' E 011°59'1515.0
2014-Oct-23 17:34N 56°23' E 012°11'1616.0
2014-Oct-23 16:34N 56°10' E 012°29'1716.8
2014-Oct-23 15:33N 55°56' E 012°44'1414.0
2014-Oct-23 14:34N 55°42' E 012°36'0 0.2
2014-Oct-23 13:31N 55°42' E 012°36'0 0.0
2014-Oct-23 12:31N 55°42' E 012°36'0 0.0
2014-Oct-23 11:31N 55°42' E 012°36'0 0.0
2014-Oct-23 10:31N 55°42' E 012°36'0 0.0
2014-Oct-23 09:31N 55°42' E 012°36'0 0.0
2014-Oct-23 08:31N 55°42' E 012°36'0 0.0
2014-Oct-23 07:31N 55°42' E 012°36'9 9.1
2014-Oct-23 06:34N 55°50' E 012°42'1414.1
2014-Oct-23 05:34N 56°04' E 012°37'1515.1
2014-Oct-23 04:34N 56°17' E 012°24'1615.7
2014-Oct-23 03:32N 56°33' E 012°15'1616.2
2014-Oct-23 02:33N 56°48' E 012°07'1716.8
2014-Oct-23 01:33N 57°04' E 011°58'1716.7
2014-Oct-23 00:33N 57°19' E 011°45'1716.8
2014-Oct-22 23:34N 57°34' E 011°31'1717.0
2014-Oct-22 22:33N 57°49' E 011°17'1616.3
2014-Oct-22 21:34N 58°05' E 011°08'1616.2
2014-Oct-22 20:34N 58°20' E 010°60'1615.6
2014-Oct-22 19:34N 58°35' E 010°51'1616.3
2014-Oct-22 18:33N 58°51' E 010°44'1817.6
2014-Oct-22 17:33N 59°09' E 010°39'1817.5
2014-Oct-22 16:33N 59°26' E 010°33'2015.8
2014-Oct-22 15:18N 59°46' E 010°33'1013.6
2014-Oct-22 14:33N 59°54' E 010°45'0 0.1
2014-Oct-22 13:31N 59°54' E 010°45'0 0.0
2014-Oct-22 12:31N 59°54' E 010°45'0 0.0
2014-Oct-22 11:22N 59°54' E 010°45'0 0.0
2014-Oct-22 10:25N 59°54' E 010°45'0 0.0
2014-Oct-22 09:25N 59°54' E 010°45'0 0.0
2014-Oct-22 08:25N 59°54' E 010°45'0 0.1
2014-Oct-22 07:33N 59°54' E 010°45'2813.5
2014-Oct-22 05:28N 59°26' E 010°34'1516.7
2014-Oct-22 04:33N 59°12' E 010°39'1616.4
2014-Oct-22 03:33N 58°55' E 010°36'1715.8
2014-Oct-22 02:28N 58°38' E 010°33'1516.5
2014-Oct-22 01:33N 58°24' E 010°43'1716.5
2014-Oct-22 00:33N 58°09' E 010°54'1616.1
2014-Oct-21 23:33N 57°53' E 011°02'1616.3
2014-Oct-21 22:33N 57°39' E 011°17'1616.1
2014-Oct-21 21:33N 57°24' E 011°31'1616.3
2014-Oct-21 20:33N 57°09' E 011°40'1616.4
2014-Oct-21 19:33N 56°53' E 011°50'1716.6
2014-Oct-21 18:33N 56°39' E 012°06'1716.6
2014-Oct-21 17:33N 56°24' E 012°19'1616.3
2014-Oct-21 16:33N 56°09' E 012°31'1615.9
2014-Oct-21 15:33N 55°55' E 012°44'1413.7
2014-Oct-21 14:33N 55°42' E 012°36'0 0.0
2014-Oct-21 13:33N 55°42' E 012°36'0 0.0
2014-Oct-21 12:33N 55°42' E 012°36'0 0.0
2014-Oct-21 11:33N 55°42' E 012°36'0 0.0
2014-Oct-21 10:33N 55°42' E 012°36'0 0.0
2014-Oct-21 09:33N 55°42' E 012°36'0 0.0
2014-Oct-21 08:33N 55°42' E 012°36'0 0.4
2014-Oct-21 07:33N 55°42' E 012°36'1212.1
2014-Oct-21 06:33N 55°54' E 012°39'1414.1
2014-Oct-21 05:33N 56°08' E 012°30'1616.0
2014-Oct-21 04:33N 56°23' E 012°21'1616.1
2014-Oct-21 03:33N 56°39' E 012°15'1616.0
2014-Oct-21 02:31N 56°55' E 012°07'1616.2
2014-Oct-21 01:33N 57°09' E 011°56'1716.6
2014-Oct-21 00:33N 57°24' E 011°42'1717.4
2014-Oct-20 23:33N 57°39' E 011°26'1818.0
2014-Oct-20 22:33N 57°56' E 011°13'1616.1
2014-Oct-20 21:33N 58°11' E 011°05'1616.3
2014-Oct-20 20:33N 58°27' E 010°56'1615.6
2014-Oct-20 19:33N 58°42' E 010°48'1515.5
2014-Oct-20 18:33N 58°57' E 010°43'1616.0
2014-Oct-20 17:33N 59°13' E 010°37'1616.5
2014-Oct-20 16:33N 59°29' E 010°34'1614.8
2014-Oct-20 15:29N 59°45' E 010°33'1111.8
2014-Oct-20 14:33N 59°54' E 010°45'0 0.0
2014-Oct-20 13:33N 59°54' E 010°45'0 0.0
2014-Oct-20 12:33N 59°54' E 010°45'0 0.0
2014-Oct-20 11:33N 59°54' E 010°45'0 0.0
2014-Oct-20 10:33N 59°54' E 010°45'0 0.0
2014-Oct-20 09:24N 59°54' E 010°45'0 0.0
2014-Oct-20 08:27N 59°54' E 010°45'0 0.1
2014-Oct-20 07:33N 59°54' E 010°45'1412.6
2014-Oct-20 06:28N 59°41' E 010°36'1313.7
2014-Oct-20 05:33N 59°29' E 010°34'1615.7
2014-Oct-20 04:33N 59°13' E 010°38'1615.9
2014-Oct-20 03:33N 58°57' E 010°43'1615.7
2014-Oct-20 02:32N 58°41' E 010°46'1515.5
2014-Oct-20 01:33N 58°27' E 010°54'1615.8
2014-Oct-20 00:33N 58°12' E 011°02'1615.9
2014-Oct-19 23:33N 57°57' E 011°13'1716.8
2014-Oct-19 22:33N 57°41' E 011°22'1616.2
2014-Oct-19 21:33N 57°25' E 011°31'1716.6
2014-Oct-19 20:33N 57°10' E 011°40'1716.8
2014-Oct-19 19:33N 56°54' E 011°50'1716.8
2014-Oct-19 18:33N 56°39' E 012°07'1616.2
2014-Oct-19 17:33N 56°25' E 012°19'1716.7
2014-Oct-19 16:33N 56°10' E 012°31'1615.5
2014-Oct-19 15:33N 55°56' E 012°44'1414.0
2014-Oct-19 14:33N 55°42' E 012°36'0 0.5
2014-Oct-19 13:32N 55°42' E 012°36'0 0.0
2014-Oct-19 12:32N 55°42' E 012°36'0 0.0
2014-Oct-19 11:32N 55°42' E 012°36'0 0.0
2014-Oct-19 10:29N 55°42' E 012°36'0 0.0
2014-Oct-19 09:32N 55°42' E 012°36'0 0.0
2014-Oct-19 08:32N 55°42' E 012°36'0 0.1
2014-Oct-19 07:33N 55°42' E 012°36'1010.5
2014-Oct-19 06:34N 55°52' E 012°40'1413.8
2014-Oct-19 05:34N 56°06' E 012°34'1615.6
2014-Oct-19 04:34N 56°20' E 012°22'1717.0
2014-Oct-19 03:32N 56°37' E 012°16'1817.9
2014-Oct-19 02:31N 56°55' E 012°07'1718.1
2014-Oct-19 01:34N 57°11' E 011°55'1817.6
2014-Oct-19 00:34N 57°26' E 011°39'1716.8
2014-Oct-18 23:33N 57°40' E 011°23'1616.1
2014-Oct-18 22:34N 57°56' E 011°13'1515.4
2014-Oct-18 21:33N 58°10' E 011°05'1515.2
2014-Oct-18 20:34N 58°25' E 010°57'1515.2
2014-Oct-18 19:34N 58°40' E 010°49'1515.3
2014-Oct-18 18:33N 58°55' E 010°44'1615.7
2014-Oct-18 17:33N 59°10' E 010°38'1615.8
2014-Oct-18 16:33N 59°26' E 010°33'2914.5
2014-Oct-18 14:33N 59°54' E 010°44'0 0.5
2014-Oct-18 13:31N 59°54' E 010°45'0 0.0
2014-Oct-18 12:31N 59°54' E 010°45'0 0.0
2014-Oct-18 11:22N 59°54' E 010°45'0 0.0
2014-Oct-18 10:22N 59°54' E 010°45'0 0.0
2014-Oct-18 09:22N 59°54' E 010°45'0 0.0
2014-Oct-18 08:25N 59°54' E 010°45'0 0.2
2014-Oct-18 07:33N 59°54' E 010°45'2713.1
2014-Oct-18 05:28N 59°27' E 010°34'1415.7
2014-Oct-18 04:34N 59°13' E 010°38'1616.4
2014-Oct-18 03:34N 58°57' E 010°42'1615.8
2014-Oct-18 02:33N 58°41' E 010°46'1615.7
2014-Oct-18 01:34N 58°26' E 010°55'1615.7
2014-Oct-18 00:33N 58°11' E 011°04'1615.7
2014-Oct-17 23:34N 57°56' E 011°12'1615.5
2014-Oct-17 22:34N 57°41' E 011°20'1615.7
2014-Oct-17 21:34N 57°26' E 011°31'1716.5
2014-Oct-17 20:34N 57°11' E 011°40'1716.7
2014-Oct-17 19:31N 56°54' E 011°49'1616.2
2014-Oct-17 18:33N 56°41' E 012°04'1615.8
2014-Oct-17 17:33N 56°27' E 012°17'1716.9
2014-Oct-17 16:34N 56°11' E 012°29'1716.9
2014-Oct-17 15:34N 55°56' E 012°43'1414.3
2014-Oct-17 14:33N 55°42' E 012°36'0 0.4
2014-Oct-17 13:33N 55°42' E 012°36'0 0.0
2014-Oct-17 12:33N 55°42' E 012°36'0 0.0
2014-Oct-17 11:33N 55°42' E 012°36'0 0.0
2014-Oct-17 10:33N 55°42' E 012°36'0 0.0
2014-Oct-17 09:33N 55°42' E 012°36'0 0.0
2014-Oct-17 08:33N 55°42' E 012°36'0 0.1
2014-Oct-17 07:33N 55°42' E 012°36'1111.0
2014-Oct-17 06:33N 55°52' E 012°44'1413.6
2014-Oct-17 05:33N 56°05' E 012°35'1514.6
2014-Oct-17 04:33N 56°18' E 012°23'1616.1
2014-Oct-17 03:33N 56°34' E 012°18'1615.6
2014-Oct-17 02:33N 56°49' E 012°11'1615.8
2014-Oct-17 01:33N 57°04' E 012°00'2116.4
2014-Oct-17 00:17N 57°22' E 011°41'1216.5
2014-Oct-16 23:34N 57°32' E 011°31'1717.0
2014-Oct-16 22:33N 57°48' E 011°18'1616.4
2014-Oct-16 21:33N 58°04' E 011°09'1615.9
2014-Oct-16 20:33N 58°19' E 011°01'1616.4
2014-Oct-16 19:33N 58°35' E 010°52'1717.2
2014-Oct-16 18:33N 58°52' E 010°44'1817.7
2014-Oct-16 17:33N 59°09' E 010°39'1818.1
2014-Oct-16 16:33N 59°27' E 010°33'2813.9
2014-Oct-16 14:33N 59°54' E 010°45'0 0.0
2014-Oct-16 13:18N 59°54' E 010°45'0 0.0
2014-Oct-16 12:33N 59°54' E 010°45'0 0.0
2014-Oct-16 11:33N 59°54' E 010°45'0 0.0
2014-Oct-16 10:33N 59°54' E 010°45'0 0.0
2014-Oct-16 09:33N 59°54' E 010°45'0 0.0
2014-Oct-16 08:33N 59°54' E 010°45'0 0.2
2014-Oct-16 07:33N 59°54' E 010°45'2813.0
2014-Oct-16 05:24N 59°26' E 010°34'1315.8
2014-Oct-16 04:33N 59°13' E 010°38'1515.2
2014-Oct-16 03:33N 58°58' E 010°42'1515.3
2014-Oct-16 02:34N 58°43' E 010°45'  

Dump ship's entire track history